createdAt,value
2022-11-21T00:01:19.253Z,30.00
2022-11-21T00:03:47.307Z,29.00
2022-11-21T00:06:15.456Z,28.90
2022-11-21T00:08:44.803Z,29.07
2022-11-21T00:11:13.284Z,27.37
2022-11-21T00:13:42.053Z,30.17
2022-11-21T00:16:12.865Z,29.30
2022-11-21T00:18:41.697Z,27.93
2022-11-21T00:21:12.977Z,27.17
2022-11-21T00:23:40.977Z,27.57
2022-11-21T00:26:12.505Z,26.87
2022-11-21T00:28:40.695Z,24.93
2022-11-21T00:31:08.938Z,26.13
2022-11-21T00:33:39.028Z,25.30
2022-11-21T00:36:08.610Z,26.07
2022-11-21T00:38:37.161Z,25.30
2022-11-21T00:41:05.243Z,24.37
2022-11-21T00:43:35.180Z,25.10
2022-11-21T00:46:04.289Z,25.37
2022-11-21T00:48:33.291Z,26.37
2022-11-21T00:51:01.998Z,26.10
2022-11-21T00:53:30.917Z,28.53
2022-11-21T00:55:59.476Z,27.50
2022-11-21T00:58:27.800Z,27.50
2022-11-21T01:01:06.137Z,28.23
2022-11-21T01:03:35.408Z,27.23
2022-11-21T01:06:05.499Z,28.53
2022-11-21T01:08:33.579Z,27.63
2022-11-21T01:11:04.519Z,26.60
2022-11-21T01:13:32.596Z,25.87
2022-11-21T01:16:05.911Z,26.03
2022-11-21T01:18:33.886Z,24.90
2022-11-21T01:21:02.117Z,25.13
2022-11-21T01:23:30.618Z,23.67
2022-11-21T01:26:02.823Z,26.03
2022-11-21T01:28:30.764Z,22.83
2022-11-21T01:31:06.180Z,23.77
2022-11-21T01:33:34.852Z,25.87
2022-11-21T01:36:11.152Z,25.10
2022-11-21T01:38:39.411Z,24.90
2022-11-21T01:41:07.535Z,23.93
2022-11-21T01:43:35.554Z,25.43
2022-11-21T01:46:11.680Z,25.67
2022-11-21T01:48:44.192Z,25.53
2022-11-21T01:51:16.682Z,27.20
2022-11-21T01:53:49.826Z,26.60
2022-11-21T01:56:18.037Z,29.87
2022-11-21T01:58:48.337Z,30.93
2022-11-21T02:01:17.859Z,30.97
2022-11-21T02:03:47.673Z,30.37
2022-11-21T02:06:15.805Z,31.83
2022-11-21T02:08:45.454Z,31.43
2022-11-21T02:11:21.567Z,30.17
2022-11-21T02:13:49.504Z,31.50
2022-11-21T02:16:18.823Z,30.70
2022-11-21T02:18:46.851Z,30.27
2022-11-21T02:21:22.348Z,30.80
2022-11-21T02:24:00.050Z,30.40
2022-11-21T02:26:30.307Z,30.50
2022-11-21T02:28:59.130Z,29.70
2022-11-21T02:31:27.174Z,29.90
2022-11-21T02:33:55.188Z,29.60
2022-11-21T02:36:38.889Z,30.40
2022-11-21T02:39:09.090Z,29.73
2022-11-21T02:41:43.839Z,29.60
2022-11-21T02:44:21.134Z,29.27
2022-11-21T02:46:51.218Z,29.43
2022-11-21T02:49:26.912Z,28.63
2022-11-21T02:51:54.902Z,29.37
2022-11-21T02:54:22.876Z,31.40
2022-11-21T02:56:52.200Z,29.23
2022-11-21T02:59:20.172Z,32.17
2022-11-21T03:01:48.152Z,29.60
2022-11-21T03:04:16.132Z,29.53
2022-11-21T03:06:44.132Z,28.87
2022-11-21T03:09:12.762Z,29.67
2022-11-21T03:11:40.738Z,32.40
2022-11-21T03:14:10.117Z,29.50
2022-11-21T03:16:38.090Z,28.70
2022-11-21T03:19:06.047Z,29.10
2022-11-21T03:21:34.032Z,30.10
2022-11-21T03:24:01.975Z,29.63
2022-11-21T03:26:29.950Z,30.50
2022-11-21T03:28:57.933Z,30.63
2022-11-21T03:31:27.261Z,30.37
2022-11-21T03:33:55.233Z,29.27
2022-11-21T03:36:23.185Z,29.73
2022-11-21T03:38:51.154Z,29.13
2022-11-21T03:41:30.909Z,30.80
2022-11-21T03:43:59.662Z,29.87
2022-11-21T03:46:29.339Z,31.30
2022-11-21T03:48:57.497Z,29.03
2022-11-21T03:51:25.952Z,27.27
2022-11-21T03:53:54.264Z,28.80
2022-11-21T03:56:22.423Z,28.47
2022-11-21T03:58:50.567Z,28.90
2022-11-21T04:01:18.656Z,29.77
2022-11-21T04:03:48.397Z,29.73
2022-11-21T04:06:18.249Z,26.63
2022-11-21T04:08:46.556Z,29.20
2022-11-21T04:11:14.704Z,28.47
2022-11-21T04:13:42.907Z,30.80
2022-11-21T04:16:11.135Z,28.70
2022-11-21T04:18:39.129Z,27.27
2022-11-21T04:21:09.157Z,28.90
2022-11-21T04:23:37.231Z,26.93
2022-11-21T04:26:05.564Z,26.30
2022-11-21T04:28:33.534Z,25.63
2022-11-21T04:31:10.028Z,26.97
2022-11-21T04:33:39.319Z,26.80
2022-11-21T04:36:09.794Z,26.77
2022-11-21T04:38:38.259Z,26.50
2022-11-21T04:41:06.210Z,27.20
2022-11-21T04:43:34.197Z,36.87
2022-11-21T04:46:02.212Z,35.90
2022-11-21T04:48:30.218Z,37.40
2022-11-21T04:50:58.165Z,39.80
2022-11-21T04:53:27.533Z,35.70
2022-11-21T04:55:55.502Z,30.07
2022-11-21T04:58:23.493Z,27.10
2022-11-21T05:00:51.589Z,27.27
2022-11-21T05:03:19.624Z,26.93
2022-11-21T05:05:47.814Z,26.53
2022-11-21T05:08:15.838Z,26.10
2022-11-21T05:11:03.322Z,26.70
2022-11-21T05:13:31.325Z,24.00
2022-11-21T05:15:59.306Z,26.33
2022-11-21T05:18:27.357Z,26.30
2022-11-21T05:20:55.361Z,26.13
2022-11-21T05:23:23.338Z,27.23
2022-11-21T05:25:52.661Z,27.63
2022-11-21T05:28:20.657Z,29.97
2022-11-21T05:30:48.610Z,28.97
2022-11-21T05:33:16.587Z,30.33
2022-11-21T05:35:44.645Z,33.57
2022-11-21T05:38:12.671Z,33.63
2022-11-21T05:40:40.657Z,34.63
2022-11-21T05:43:29.654Z,36.77
2022-11-21T05:45:57.624Z,38.73
2022-11-21T05:48:25.628Z,38.63
2022-11-21T05:50:53.775Z,42.80
2022-11-21T05:53:22.023Z,40.63
2022-11-21T05:55:49.982Z,41.63
2022-11-21T05:58:19.323Z,43.17
2022-11-21T06:00:47.403Z,42.10
2022-11-21T06:03:30.947Z,45.40
2022-11-21T06:06:05.001Z,41.87
2022-11-21T06:08:36.165Z,45.13
2022-11-21T06:11:05.533Z,43.40
2022-11-21T06:13:35.460Z,44.53
2022-11-21T06:16:05.592Z,45.50
2022-11-21T06:18:35.353Z,43.53
2022-11-21T06:21:04.597Z,44.27
2022-11-21T06:23:32.834Z,46.63
2022-11-21T06:26:02.178Z,45.83
2022-11-21T06:28:33.654Z,43.27
2022-11-21T06:31:05.753Z,44.63
2022-11-21T06:33:34.076Z,43.77
2022-11-21T06:36:04.112Z,44.50
2022-11-21T06:38:32.122Z,46.67
2022-11-21T06:41:00.239Z,46.97
2022-11-21T06:43:28.883Z,44.57
2022-11-21T06:45:58.812Z,44.93
2022-11-21T06:48:28.143Z,44.87
2022-11-21T06:50:56.092Z,44.00
2022-11-21T06:53:24.065Z,44.57
2022-11-21T06:55:52.042Z,44.30
2022-11-21T06:58:20.032Z,46.40
2022-11-21T07:00:48.784Z,45.37
2022-11-21T07:03:18.377Z,46.90
2022-11-21T07:05:47.756Z,47.10
2022-11-21T07:08:16.023Z,45.53
2022-11-21T07:11:03.454Z,48.43
2022-11-21T07:13:32.543Z,48.80
2022-11-21T07:16:04.628Z,45.57
2022-11-21T07:18:32.649Z,46.50
2022-11-21T07:21:03.322Z,45.07
2022-11-21T07:23:32.454Z,45.17
2022-11-21T07:26:02.101Z,44.83
2022-11-21T07:28:30.345Z,43.30
2022-11-21T07:30:58.594Z,44.60
2022-11-21T07:33:26.887Z,45.63
2022-11-21T07:35:56.925Z,47.57
2022-11-21T07:38:26.608Z,46.90
2022-11-21T07:40:54.730Z,47.33
2022-11-21T07:43:22.698Z,43.47
2022-11-21T07:45:50.671Z,46.07
2022-11-21T07:48:18.697Z,44.27
2022-11-21T07:50:46.674Z,43.23
2022-11-21T07:53:14.687Z,46.77
2022-11-21T07:55:44.060Z,43.73
2022-11-21T07:58:14.516Z,41.93
2022-11-21T08:00:43.734Z,40.93
2022-11-21T08:03:13.030Z,40.23
2022-11-21T08:05:42.643Z,39.80
2022-11-21T08:08:11.751Z,38.83
2022-11-21T08:10:41.512Z,41.43
2022-11-21T08:13:11.477Z,41.80
2022-11-21T08:15:39.499Z,41.97
2022-11-21T08:18:11.307Z,41.13
2022-11-21T08:20:39.600Z,40.13
2022-11-21T08:23:08.284Z,40.67
2022-11-21T08:25:38.644Z,37.47
2022-11-21T08:28:07.247Z,38.67
2022-11-21T08:30:37.476Z,37.17
2022-11-21T08:33:06.742Z,37.10
2022-11-21T08:35:37.652Z,35.13
2022-11-21T08:38:05.994Z,35.57
2022-11-21T08:40:34.631Z,38.30
2022-11-21T08:43:04.116Z,34.10
2022-11-21T08:45:32.723Z,35.73
2022-11-21T08:48:02.709Z,35.70
2022-11-21T08:50:32.080Z,35.83
2022-11-21T08:53:03.785Z,33.70
2022-11-21T08:55:32.177Z,33.53
2022-11-21T08:58:00.313Z,33.43
2022-11-21T09:00:28.272Z,35.50
2022-11-21T09:02:56.290Z,34.90
2022-11-21T09:05:25.719Z,33.77
2022-11-21T09:07:58.275Z,33.63
2022-11-21T09:10:26.658Z,33.37
2022-11-21T09:12:54.703Z,33.20
2022-11-21T09:15:40.143Z,31.73
2022-11-21T09:18:08.502Z,32.23
2022-11-21T09:20:42.689Z,36.20
2022-11-21T09:23:12.653Z,33.67
2022-11-21T09:25:40.720Z,33.63
2022-11-21T09:28:10.029Z,35.43
2022-11-21T09:30:38.691Z,31.07
2022-11-21T09:33:08.308Z,27.87
2022-11-21T09:35:36.408Z,25.30
2022-11-21T09:38:06.173Z,25.27
2022-11-21T09:40:36.042Z,25.60
2022-11-21T09:43:26.532Z,25.43
2022-11-21T09:46:01.246Z,24.90
2022-11-21T09:48:32.715Z,26.40
2022-11-21T09:51:05.502Z,25.97
2022-11-21T09:53:38.589Z,25.37
2022-11-21T09:56:11.300Z,24.17
2022-11-21T09:58:43.517Z,24.70
2022-11-21T10:01:14.221Z,26.17
2022-11-21T10:04:26.607Z,25.90
2022-11-21T10:07:04.063Z,25.40
2022-11-21T10:09:48.178Z,25.87
2022-11-21T10:12:39.835Z,24.67
2022-11-21T10:15:24.682Z,24.83
2022-11-21T10:18:10.957Z,25.83
2022-11-21T10:20:54.376Z,23.30
2022-11-21T10:23:37.728Z,24.03
2022-11-21T10:26:17.545Z,24.77
2022-11-21T10:28:52.380Z,24.13
2022-11-21T10:31:21.038Z,24.90
2022-11-21T10:33:50.658Z,23.20
2022-11-21T10:36:28.431Z,25.50
2022-11-21T10:39:02.212Z,24.93
2022-11-21T10:41:41.404Z,26.00
2022-11-21T10:44:35.521Z,26.43
2022-11-21T10:47:03.877Z,26.13
2022-11-21T10:49:35.374Z,26.57
2022-11-21T10:52:08.514Z,25.93
2022-11-21T10:55:07.795Z,25.53
2022-11-21T10:57:45.347Z,25.50
2022-11-21T11:00:22.947Z,26.80
2022-11-21T11:03:06.443Z,27.10
2022-11-21T11:05:36.631Z,27.13
2022-11-21T11:08:08.424Z,26.40
2022-11-21T11:10:38.152Z,27.37
2022-11-21T11:13:50.932Z,26.90
2022-11-21T11:16:22.717Z,27.10
2022-11-21T11:18:58.218Z,28.67
2022-11-21T11:21:27.707Z,27.47
2022-11-21T11:24:07.559Z,28.03
2022-11-21T11:26:35.746Z,30.57
2022-11-21T11:29:15.642Z,28.50
2022-11-21T11:31:46.000Z,28.47
2022-11-21T11:34:16.008Z,31.83
2022-11-21T11:37:04.048Z,30.60
2022-11-21T11:39:40.352Z,29.13
2022-11-21T11:42:47.640Z,30.00
2022-11-21T11:45:49.478Z,29.30
2022-11-21T11:48:21.134Z,26.60
2022-11-21T11:50:52.593Z,27.40
2022-11-21T11:53:23.259Z,25.20
2022-11-21T11:55:54.452Z,24.53
2022-11-21T11:58:27.951Z,23.73
2022-11-21T12:01:02.528Z,24.13
2022-11-21T12:03:40.068Z,23.70
2022-11-21T12:06:13.724Z,22.50
2022-11-21T12:08:48.836Z,19.43
2022-11-21T12:11:48.490Z,19.93
2022-11-21T12:14:37.822Z,19.23
2022-11-21T12:17:10.683Z,15.83
2022-11-21T12:19:40.025Z,16.43
2022-11-21T12:22:12.263Z,15.70
2022-11-21T12:24:43.216Z,15.50
2022-11-21T12:27:25.114Z,15.80
2022-11-21T12:30:32.925Z,16.83
2022-11-21T12:33:09.188Z,15.17
2022-11-21T12:35:52.005Z,13.40
2022-11-21T12:38:45.135Z,15.33
2022-11-21T12:41:36.120Z,13.23
2022-11-21T12:44:21.380Z,12.60
2022-11-21T12:47:00.562Z,13.00
2022-11-21T12:49:56.313Z,11.63
2022-11-21T12:52:47.643Z,12.87
2022-11-21T12:55:21.133Z,11.60
2022-11-21T12:58:11.558Z,12.47
2022-11-21T13:00:53.836Z,14.90
2022-11-21T13:03:38.969Z,15.17
2022-11-21T13:06:15.960Z,16.90
2022-11-21T13:08:45.694Z,14.20
2022-11-21T13:11:40.585Z,15.60
2022-11-21T13:14:14.733Z,16.30
2022-11-21T13:16:48.440Z,16.23
2022-11-21T13:19:22.636Z,17.50
2022-11-21T13:21:54.328Z,14.03
2022-11-21T13:24:56.332Z,13.43
2022-11-21T13:27:38.489Z,14.40
2022-11-21T13:30:24.664Z,15.00
2022-11-21T13:32:54.924Z,17.33
2022-11-21T13:35:59.582Z,18.27
2022-11-21T13:38:29.170Z,12.30
2022-11-21T13:41:14.847Z,12.73
2022-11-21T13:43:42.853Z,12.80
2022-11-21T13:46:10.862Z,10.90
2022-11-21T13:48:55.615Z,12.70
2022-11-21T13:51:49.829Z,11.87
2022-11-21T13:54:47.206Z,9.70
2022-11-21T13:57:38.851Z,10.10
2022-11-21T14:00:24.708Z,9.93
2022-11-21T14:03:11.985Z,10.47
2022-11-21T14:06:06.410Z,10.60
2022-11-21T14:08:34.968Z,10.03
2022-11-21T14:11:21.714Z,10.20
2022-11-21T14:13:51.296Z,11.10
2022-11-21T14:16:28.264Z,12.27
2022-11-21T14:18:57.238Z,11.53
2022-11-21T14:21:27.713Z,11.33
2022-11-21T14:23:59.244Z,12.00
2022-11-21T14:26:32.028Z,11.67
2022-11-21T14:29:18.621Z,11.07
2022-11-21T14:31:47.539Z,11.73
2022-11-21T14:34:25.681Z,11.50
2022-11-21T14:36:54.524Z,12.00
2022-11-21T14:39:37.211Z,12.23
2022-11-21T14:42:15.064Z,10.97
2022-11-21T14:44:43.427Z,11.53
2022-11-21T14:47:19.900Z,11.77
2022-11-21T14:49:54.298Z,11.50
2022-11-21T14:52:27.198Z,11.80
2022-11-21T14:55:28.442Z,12.53
2022-11-21T14:57:46.993Z,12.40
2022-11-21T15:00:51.173Z,12.27
2022-11-21T15:03:20.935Z,13.63
2022-11-21T15:06:08.273Z,15.53
2022-11-21T15:11:34.089Z,17.57
2022-11-21T15:14:17.023Z,16.10
2022-11-21T15:16:47.284Z,15.80
2022-11-21T15:19:21.894Z,15.77
2022-11-21T15:21:51.422Z,15.00
2022-11-21T15:24:29.446Z,16.07
2022-11-21T15:26:57.843Z,16.83
2022-11-21T15:29:27.902Z,17.00
2022-11-21T15:32:13.992Z,18.63
2022-11-21T15:34:57.269Z,18.80
2022-11-21T15:37:25.451Z,18.13
2022-11-21T15:39:54.586Z,18.07
2022-11-21T15:42:38.626Z,19.17
2022-11-21T15:45:25.893Z,20.23
2022-11-21T15:47:55.508Z,20.40
2022-11-21T15:50:24.873Z,21.13
2022-11-21T15:52:53.773Z,21.80
2022-11-21T15:55:25.354Z,17.83
2022-11-21T15:57:53.353Z,18.27
2022-11-21T16:00:21.560Z,19.43
2022-11-21T16:02:50.955Z,20.30
2022-11-21T16:05:18.943Z,19.83
2022-11-21T16:07:48.424Z,22.67
2022-11-21T16:10:24.345Z,19.17
2022-11-21T16:12:55.428Z,16.43
2022-11-21T16:15:23.636Z,16.67
2022-11-21T16:17:54.016Z,15.10
2022-11-21T16:20:21.998Z,13.90
2022-11-21T16:22:50.165Z,14.53
2022-11-21T16:25:18.246Z,14.63
2022-11-21T16:27:47.259Z,15.33
2022-11-21T16:30:16.050Z,15.70
2022-11-21T16:32:43.991Z,16.53
2022-11-21T16:35:13.308Z,16.70
2022-11-21T16:37:41.315Z,17.63
2022-11-21T16:40:11.264Z,17.40
2022-11-21T16:42:39.236Z,17.60
2022-11-21T16:45:07.700Z,16.90
2022-11-21T16:47:38.160Z,18.90
2022-11-21T16:50:07.588Z,19.20
2022-11-21T16:52:36.942Z,18.10
2022-11-21T16:55:05.547Z,17.87
2022-11-21T16:57:36.655Z,17.60
2022-11-21T17:00:06.124Z,18.00
2022-11-21T17:02:34.198Z,18.30
2022-11-21T17:05:02.153Z,18.60
2022-11-21T17:07:31.531Z,19.60
2022-11-21T17:10:00.978Z,19.20
2022-11-21T17:12:28.993Z,19.07
2022-11-21T17:14:57.018Z,18.57
2022-11-21T17:17:24.976Z,20.80
2022-11-21T17:19:54.604Z,21.00
2022-11-21T17:22:24.777Z,20.37
2022-11-21T17:24:53.496Z,19.80
2022-11-21T17:27:24.204Z,20.67
2022-11-21T17:29:52.185Z,23.13
2022-11-21T17:32:20.287Z,21.57
2022-11-21T17:34:48.276Z,20.27
2022-11-21T17:37:16.299Z,23.03
2022-11-21T17:39:44.312Z,25.77
2022-11-21T17:42:12.303Z,26.60
2022-11-21T17:44:41.626Z,25.70
2022-11-21T17:47:09.635Z,23.97
2022-11-21T17:49:37.960Z,22.97
2022-11-21T17:52:07.460Z,24.90
2022-11-21T17:54:35.598Z,24.10
2022-11-21T17:57:03.647Z,23.73
2022-11-21T17:59:31.842Z,25.43
2022-11-21T18:02:02.045Z,24.67
2022-11-21T18:04:30.300Z,23.70
2022-11-21T18:06:58.666Z,25.63
2022-11-21T18:09:26.923Z,25.60
2022-11-21T18:11:54.996Z,28.27
2022-11-21T18:14:22.965Z,27.47
2022-11-21T18:16:53.472Z,27.63
2022-11-21T18:19:24.196Z,26.40
2022-11-21T18:21:52.853Z,29.40
2022-11-21T18:24:20.819Z,29.90
2022-11-21T18:26:48.793Z,32.63
2022-11-21T18:32:04.972Z,32.93
2022-11-21T18:34:34.293Z,33.77
2022-11-21T18:37:02.251Z,29.83
2022-11-21T18:39:30.486Z,30.03
2022-11-21T18:41:58.680Z,27.50
2022-11-21T18:44:26.651Z,26.43
2022-11-21T18:46:54.633Z,26.93
2022-11-21T18:49:22.591Z,26.50
2022-11-21T18:51:52.081Z,28.43
2022-11-21T18:54:20.037Z,29.00
2022-11-21T18:56:48.039Z,28.33
2022-11-21T18:59:16.125Z,28.47
2022-11-21T19:01:44.325Z,28.67
2022-11-21T19:04:12.383Z,28.83
2022-11-21T19:06:40.381Z,27.07
2022-11-21T19:09:10.914Z,28.30
2022-11-21T19:11:38.915Z,26.87
2022-11-21T19:14:06.961Z,29.90
2022-11-21T19:16:35.019Z,36.60
2022-11-21T19:19:33.217Z,38.67
2022-11-21T19:21:54.041Z,40.17
2022-11-21T19:24:23.351Z,39.50
2022-11-21T19:26:51.372Z,42.70
2022-11-21T19:29:19.744Z,40.23
2022-11-21T19:31:47.853Z,38.97
2022-11-21T19:34:16.903Z,38.23
2022-11-21T19:36:45.110Z,35.37
2022-11-21T19:39:13.628Z,34.67
2022-11-21T19:41:42.976Z,32.57
2022-11-21T19:44:11.549Z,33.63
2022-11-21T19:46:41.056Z,35.03
2022-11-21T19:49:11.792Z,32.63
2022-11-21T19:51:42.050Z,37.20
2022-11-21T19:54:12.209Z,37.53
2022-11-21T19:56:41.867Z,37.33
2022-11-21T19:59:13.203Z,36.50
2022-11-21T20:01:41.450Z,38.43
2022-11-21T20:04:09.492Z,40.73
2022-11-21T20:06:39.100Z,43.80
2022-11-21T20:09:08.899Z,42.83
2022-11-21T20:11:37.140Z,41.20
2022-11-21T20:14:06.620Z,42.10
2022-11-21T20:16:36.444Z,40.20
2022-11-21T20:19:07.015Z,39.57
2022-11-21T20:21:35.496Z,37.90
2022-11-21T20:24:03.748Z,37.47
2022-11-21T20:26:32.594Z,38.30
2022-11-21T20:29:00.690Z,40.00
2022-11-21T20:31:31.859Z,40.37
2022-11-21T20:34:01.782Z,38.30
2022-11-21T20:36:31.180Z,39.37
2022-11-21T20:39:01.151Z,40.13
2022-11-21T20:41:31.336Z,43.03
2022-11-21T20:46:50.711Z,43.83
2022-11-21T20:49:18.971Z,39.90
2022-11-21T20:54:35.789Z,36.30
2022-11-21T20:57:03.793Z,35.80
2022-11-21T20:59:32.040Z,36.00
2022-11-21T21:02:01.745Z,34.37
2022-11-21T21:04:29.815Z,35.47
2022-11-21T21:06:57.776Z,34.27
2022-11-21T21:09:25.738Z,36.60
2022-11-21T21:11:53.796Z,36.90
2022-11-21T21:14:22.547Z,38.03
2022-11-21T21:16:51.197Z,35.13
2022-11-21T21:19:24.403Z,34.73
2022-11-21T21:21:52.470Z,35.93
2022-11-21T21:24:20.445Z,36.73
2022-11-21T21:26:49.733Z,33.00
2022-11-21T21:29:19.504Z,32.20
2022-11-21T21:31:51.461Z,31.23
2022-11-21T21:34:22.071Z,30.27
2022-11-21T21:36:50.746Z,33.03
2022-11-21T21:39:18.855Z,34.47
2022-11-21T21:41:47.728Z,34.00
2022-11-21T21:44:16.457Z,35.17
2022-11-21T21:46:44.970Z,35.47
2022-11-21T21:49:12.967Z,42.20
2022-11-21T21:51:42.422Z,38.90
2022-11-21T21:54:19.814Z,40.23
2022-11-21T21:56:48.539Z,38.57
2022-11-21T21:59:18.248Z,41.80
2022-11-21T22:01:46.544Z,36.80
2022-11-21T22:04:14.736Z,39.63
2022-11-21T22:06:44.144Z,39.70
2022-11-21T22:09:12.184Z,36.80
2022-11-21T22:11:40.612Z,37.77
2022-11-21T22:14:12.382Z,36.73
2022-11-21T22:16:40.667Z,37.83
2022-11-21T22:19:09.010Z,38.30
2022-11-21T22:21:38.465Z,36.87
2022-11-21T22:24:25.475Z,37.37
2022-11-21T22:26:55.036Z,37.87
2022-11-21T22:29:23.090Z,37.40
2022-11-21T22:31:51.878Z,39.97
2022-11-21T22:34:20.007Z,37.33
2022-11-21T22:36:48.121Z,37.23
2022-11-21T22:39:18.057Z,39.73
2022-11-21T22:41:46.155Z,37.67
2022-11-21T22:44:14.207Z,38.90
2022-11-21T22:46:42.174Z,38.90
2022-11-21T22:49:10.161Z,37.13
2022-11-21T22:51:38.189Z,38.23
2022-11-21T22:54:06.235Z,38.13
2022-11-21T22:56:35.585Z,38.23
2022-11-21T22:59:03.562Z,38.47
2022-11-21T23:01:34.056Z,40.00
2022-11-21T23:04:02.168Z,37.50
2022-11-21T23:06:30.134Z,39.37
2022-11-21T23:08:58.705Z,40.00
2022-11-21T23:11:28.817Z,38.87
2022-11-21T23:13:58.543Z,40.03
2022-11-21T23:16:26.967Z,38.90
2022-11-21T23:18:55.472Z,40.73
2022-11-21T23:21:24.290Z,39.97
2022-11-21T23:23:52.302Z,41.07
2022-11-21T23:26:20.340Z,43.10
2022-11-21T23:28:48.729Z,42.47
2022-11-21T23:31:18.247Z,44.13
2022-11-21T23:33:46.241Z,44.43
2022-11-21T23:36:14.189Z,46.67
2022-11-21T23:38:42.206Z,46.00
2022-11-21T23:41:10.476Z,49.07
2022-11-21T23:43:38.487Z,49.17
2022-11-21T23:46:06.480Z,49.27
2022-11-21T23:48:35.786Z,50.10
2022-11-21T23:51:03.761Z,49.50
2022-11-21T23:53:31.780Z,49.30
2022-11-21T23:55:59.803Z,50.67
2022-11-21T23:58:27.918Z,48.07
